sensor_id;sensor_type;location;lat;lon;timestamp;P1;durP1;ratioP1;P2;durP2;ratioP2
11004;SDS011;5555;59.622;16.556;2023-03-23T00:00:50;17.80;;;4.17;;
11004;SDS011;5555;59.622;16.556;2023-03-23T00:03:16;23.17;;;4.97;;
11004;SDS011;5555;59.622;16.556;2023-03-23T00:05:42;16.97;;;3.83;;
11004;SDS011;5555;59.622;16.556;2023-03-23T00:08:15;16.17;;;3.83;;
11004;SDS011;5555;59.622;16.556;2023-03-23T00:10:47;15.07;;;4.03;;
11004;SDS011;5555;59.622;16.556;2023-03-23T00:13:22;21.33;;;5.50;;
11004;SDS011;5555;59.622;16.556;2023-03-23T00:15:48;19.60;;;5.30;;
11004;SDS011;5555;59.622;16.556;2023-03-23T00:18:15;22.90;;;4.90;;
11004;SDS011;5555;59.622;16.556;2023-03-23T00:20:56;16.77;;;4.83;;
11004;SDS011;5555;59.622;16.556;2023-03-23T00:23:24;22.43;;;4.47;;
11004;SDS011;5555;59.622;16.556;2023-03-23T00:25:51;24.33;;;4.80;;
11004;SDS011;5555;59.622;16.556;2023-03-23T00:28:23;23.70;;;5.37;;
11004;SDS011;5555;59.622;16.556;2023-03-23T00:33:31;17.10;;;4.47;;
11004;SDS011;5555;59.622;16.556;2023-03-23T00:36:09;23.70;;;4.70;;
11004;SDS011;5555;59.622;16.556;2023-03-23T00:38:36;23.03;;;4.57;;
11004;SDS011;5555;59.622;16.556;2023-03-23T00:41:02;22.23;;;6.10;;
11004;SDS011;5555;59.622;16.556;2023-03-23T00:43:29;19.33;;;5.30;;
11004;SDS011;5555;59.622;16.556;2023-03-23T00:45:56;17.40;;;4.33;;
11004;SDS011;5555;59.622;16.556;2023-03-23T00:48:26;19.10;;;4.83;;
11004;SDS011;5555;59.622;16.556;2023-03-23T00:50:53;21.63;;;5.40;;
11004;SDS011;5555;59.622;16.556;2023-03-23T00:53:19;26.00;;;5.63;;
11004;SDS011;5555;59.622;16.556;2023-03-23T00:55:45;27.10;;;5.67;;
11004;SDS011;5555;59.622;16.556;2023-03-23T00:58:12;22.43;;;5.83;;
11004;SDS011;5555;59.622;16.556;2023-03-23T01:00:39;20.53;;;5.33;;
11004;SDS011;5555;59.622;16.556;2023-03-23T01:03:06;25.77;;;5.40;;
11004;SDS011;5555;59.622;16.556;2023-03-23T01:05:34;27.53;;;6.13;;
11004;SDS011;5555;59.622;16.556;2023-03-23T01:08:00;17.93;;;4.47;;
11004;SDS011;5555;59.622;16.556;2023-03-23T01:10:27;28.23;;;5.70;;
11004;SDS011;5555;59.622;16.556;2023-03-23T01:12:53;30.17;;;5.80;;
11004;SDS011;5555;59.622;16.556;2023-03-23T01:15:19;20.10;;;4.97;;
11004;SDS011;5555;59.622;16.556;2023-03-23T01:17:45;26.00;;;5.97;;
11004;SDS011;5555;59.622;16.556;2023-03-23T01:20:12;25.03;;;5.90;;
11004;SDS011;5555;59.622;16.556;2023-03-23T01:22:40;28.53;;;6.43;;
11004;SDS011;5555;59.622;16.556;2023-03-23T01:25:07;28.17;;;6.17;;
11004;SDS011;5555;59.622;16.556;2023-03-23T01:27:34;20.90;;;5.00;;
11004;SDS011;5555;59.622;16.556;2023-03-23T01:29:59;26.53;;;5.70;;
11004;SDS011;5555;59.622;16.556;2023-03-23T01:32:25;19.73;;;6.03;;
11004;SDS011;5555;59.622;16.556;2023-03-23T01:34:52;27.50;;;5.27;;
11004;SDS011;5555;59.622;16.556;2023-03-23T01:37:17;27.77;;;6.10;;
11004;SDS011;5555;59.622;16.556;2023-03-23T01:39:44;28.03;;;5.83;;
11004;SDS011;5555;59.622;16.556;2023-03-23T01:42:10;29.70;;;5.97;;
11004;SDS011;5555;59.622;16.556;2023-03-23T01:47:02;27.50;;;5.97;;
11004;SDS011;5555;59.622;16.556;2023-03-23T01:49:29;28.77;;;6.87;;
11004;SDS011;5555;59.622;16.556;2023-03-23T01:52:02;24.77;;;5.63;;
11004;SDS011;5555;59.622;16.556;2023-03-23T01:54:33;23.70;;;6.53;;
11004;SDS011;5555;59.622;16.556;2023-03-23T01:57:04;28.13;;;6.10;;
11004;SDS011;5555;59.622;16.556;2023-03-23T01:59:34;28.37;;;6.67;;
11004;SDS011;5555;59.622;16.556;2023-03-23T02:02:01;33.23;;;6.37;;
11004;SDS011;5555;59.622;16.556;2023-03-23T02:04:27;27.43;;;6.40;;
11004;SDS011;5555;59.622;16.556;2023-03-23T02:06:54;31.53;;;6.53;;
11004;SDS011;5555;59.622;16.556;2023-03-23T02:09:22;31.93;;;6.47;;
11004;SDS011;5555;59.622;16.556;2023-03-23T02:11:50;28.53;;;5.67;;
11004;SDS011;5555;59.622;16.556;2023-03-23T02:14:18;29.97;;;6.27;;
11004;SDS011;5555;59.622;16.556;2023-03-23T02:17:05;29.13;;;6.30;;
11004;SDS011;5555;59.622;16.556;2023-03-23T02:20:03;27.20;;;7.00;;
11004;SDS011;5555;59.622;16.556;2023-03-23T02:22:54;22.97;;;6.53;;
11004;SDS011;5555;59.622;16.556;2023-03-23T02:25:53;26.40;;;5.83;;
11004;SDS011;5555;59.622;16.556;2023-03-23T02:36:46;26.83;;;7.23;;
11004;SDS011;5555;59.622;16.556;2023-03-23T02:39:37;26.30;;;5.93;;
11004;SDS011;5555;59.622;16.556;2023-03-23T02:42:10;32.43;;;7.07;;
11004;SDS011;5555;59.622;16.556;2023-03-23T02:44:40;31.33;;;6.50;;
11004;SDS011;5555;59.622;16.556;2023-03-23T02:47:10;33.83;;;6.70;;
11004;SDS011;5555;59.622;16.556;2023-03-23T02:49:39;28.97;;;6.13;;
11004;SDS011;5555;59.622;16.556;2023-03-23T02:52:10;22.80;;;6.70;;
11004;SDS011;5555;59.622;16.556;2023-03-23T02:54:40;32.03;;;6.43;;
11004;SDS011;5555;59.622;16.556;2023-03-23T02:57:07;29.47;;;5.97;;
11004;SDS011;5555;59.622;16.556;2023-03-23T02:59:33;28.87;;;6.57;;
11004;SDS011;5555;59.622;16.556;2023-03-23T03:02:04;30.83;;;6.10;;
11004;SDS011;5555;59.622;16.556;2023-03-23T03:04:31;22.13;;;6.13;;
11004;SDS011;5555;59.622;16.556;2023-03-23T03:07:18;30.80;;;7.23;;
11004;SDS011;5555;59.622;16.556;2023-03-23T03:09:58;23.13;;;6.07;;
11004;SDS011;5555;59.622;16.556;2023-03-23T03:15:24;28.17;;;6.00;;
11004;SDS011;5555;59.622;16.556;2023-03-23T03:18:03;32.77;;;6.57;;
11004;SDS011;5555;59.622;16.556;2023-03-23T03:20:44;25.13;;;5.87;;
11004;SDS011;5555;59.622;16.556;2023-03-23T03:23:13;29.07;;;6.47;;
11004;SDS011;5555;59.622;16.556;2023-03-23T03:25:41;30.60;;;5.77;;
11004;SDS011;5555;59.622;16.556;2023-03-23T03:28:13;27.23;;;6.67;;
11004;SDS011;5555;59.622;16.556;2023-03-23T03:30:41;29.87;;;5.80;;
11004;SDS011;5555;59.622;16.556;2023-03-23T03:33:09;27.27;;;6.80;;
11004;SDS011;5555;59.622;16.556;2023-03-23T03:35:36;21.30;;;6.23;;
11004;SDS011;5555;59.622;16.556;2023-03-23T03:38:05;28.77;;;6.03;;
11004;SDS011;5555;59.622;16.556;2023-03-23T03:40:33;27.03;;;5.67;;
11004;SDS011;5555;59.622;16.556;2023-03-23T03:42:59;29.97;;;6.33;;
11004;SDS011;5555;59.622;16.556;2023-03-23T03:45:25;25.07;;;6.10;;
11004;SDS011;5555;59.622;16.556;2023-03-23T03:47:50;24.73;;;5.77;;
11004;SDS011;5555;59.622;16.556;2023-03-23T03:50:16;26.20;;;5.97;;
11004;SDS011;5555;59.622;16.556;2023-03-23T03:52:41;29.57;;;5.40;;
11004;SDS011;5555;59.622;16.556;2023-03-23T03:55:08;30.00;;;5.60;;
11004;SDS011;5555;59.622;16.556;2023-03-23T03:57:35;29.53;;;6.07;;
11004;SDS011;5555;59.622;16.556;2023-03-23T04:00:01;28.90;;;6.50;;
11004;SDS011;5555;59.622;16.556;2023-03-23T04:02:38;21.07;;;6.10;;
11004;SDS011;5555;59.622;16.556;2023-03-23T04:05:05;25.77;;;5.57;;
11004;SDS011;5555;59.622;16.556;2023-03-23T04:07:31;20.30;;;5.33;;
11004;SDS011;5555;59.622;16.556;2023-03-23T04:09:56;20.23;;;5.73;;
11004;SDS011;5555;59.622;16.556;2023-03-23T04:12:22;21.10;;;5.90;;
11004;SDS011;5555;59.622;16.556;2023-03-23T04:14:48;26.50;;;5.93;;
11004;SDS011;5555;59.622;16.556;2023-03-23T04:17:13;26.10;;;5.03;;
11004;SDS011;5555;59.622;16.556;2023-03-23T04:19:39;21.23;;;4.63;;
11004;SDS011;5555;59.622;16.556;2023-03-23T04:22:05;18.63;;;4.80;;
11004;SDS011;5555;59.622;16.556;2023-03-23T04:24:31;29.93;;;5.93;;
11004;SDS011;5555;59.622;16.556;2023-03-23T04:26:58;22.07;;;5.63;;
11004;SDS011;5555;59.622;16.556;2023-03-23T04:29:24;21.50;;;5.37;;
11004;SDS011;5555;59.622;16.556;2023-03-23T04:31:50;24.20;;;5.53;;
11004;SDS011;5555;59.622;16.556;2023-03-23T04:34:17;26.60;;;5.67;;
11004;SDS011;5555;59.622;16.556;2023-03-23T04:36:43;28.23;;;5.50;;
11004;SDS011;5555;59.622;16.556;2023-03-23T04:39:11;23.43;;;5.33;;
11004;SDS011;5555;59.622;16.556;2023-03-23T04:41:37;27.57;;;5.70;;
11004;SDS011;5555;59.622;16.556;2023-03-23T04:44:03;29.00;;;5.63;;
11004;SDS011;5555;59.622;16.556;2023-03-23T04:46:29;25.60;;;4.73;;
11004;SDS011;5555;59.622;16.556;2023-03-23T04:48:56;28.67;;;5.23;;
11004;SDS011;5555;59.622;16.556;2023-03-23T04:51:24;19.87;;;5.20;;
11004;SDS011;5555;59.622;16.556;2023-03-23T04:53:51;23.07;;;5.07;;
11004;SDS011;5555;59.622;16.556;2023-03-23T04:56:17;25.20;;;6.77;;
11004;SDS011;5555;59.622;16.556;2023-03-23T04:58:43;26.50;;;6.77;;
11004;SDS011;5555;59.622;16.556;2023-03-23T05:01:10;28.37;;;5.97;;
11004;SDS011;5555;59.622;16.556;2023-03-23T05:03:39;30.37;;;6.17;;
11004;SDS011;5555;59.622;16.556;2023-03-23T05:06:05;25.87;;;5.67;;
11004;SDS011;5555;59.622;16.556;2023-03-23T05:08:31;30.77;;;5.97;;
11004;SDS011;5555;59.622;16.556;2023-03-23T05:10:57;26.33;;;6.00;;
11004;SDS011;5555;59.622;16.556;2023-03-23T05:13:24;18.87;;;5.47;;
11004;SDS011;5555;59.622;16.556;2023-03-23T05:15:51;31.17;;;6.07;;
11004;SDS011;5555;59.622;16.556;2023-03-23T05:18:17;25.60;;;5.67;;
11004;SDS011;5555;59.622;16.556;2023-03-23T05:20:43;24.80;;;5.67;;
11004;SDS011;5555;59.622;16.556;2023-03-23T05:23:11;28.47;;;5.93;;
11004;SDS011;5555;59.622;16.556;2023-03-23T05:25:37;29.40;;;5.13;;
11004;SDS011;5555;59.622;16.556;2023-03-23T05:28:14;24.00;;;5.30;;
11004;SDS011;5555;59.622;16.556;2023-03-23T05:30:39;23.67;;;5.57;;
11004;SDS011;5555;59.622;16.556;2023-03-23T05:33:05;18.27;;;5.10;;
11004;SDS011;5555;59.622;16.556;2023-03-23T05:35:31;23.23;;;4.97;;
11004;SDS011;5555;59.622;16.556;2023-03-23T05:37:57;27.57;;;6.40;;
11004;SDS011;5555;59.622;16.556;2023-03-23T05:40:22;21.60;;;5.43;;
11004;SDS011;5555;59.622;16.556;2023-03-23T05:42:50;18.23;;;4.87;;
11004;SDS011;5555;59.622;16.556;2023-03-23T05:45:16;21.80;;;6.27;;
11004;SDS011;5555;59.622;16.556;2023-03-23T05:47:43;22.57;;;4.83;;
11004;SDS011;5555;59.622;16.556;2023-03-23T05:50:09;25.07;;;5.47;;
11004;SDS011;5555;59.622;16.556;2023-03-23T05:52:36;24.73;;;6.00;;
11004;SDS011;5555;59.622;16.556;2023-03-23T05:55:02;21.33;;;5.13;;
11004;SDS011;5555;59.622;16.556;2023-03-23T05:57:29;25.63;;;6.17;;
11004;SDS011;5555;59.622;16.556;2023-03-23T05:59:55;27.73;;;5.43;;
11004;SDS011;5555;59.622;16.556;2023-03-23T06:02:22;27.07;;;5.80;;
11004;SDS011;5555;59.622;16.556;2023-03-23T06:04:49;22.03;;;5.40;;
11004;SDS011;5555;59.622;16.556;2023-03-23T06:07:15;22.10;;;6.47;;
11004;SDS011;5555;59.622;16.556;2023-03-23T06:09:41;18.57;;;4.77;;
11004;SDS011;5555;59.622;16.556;2023-03-23T06:12:07;19.80;;;4.90;;
11004;SDS011;5555;59.622;16.556;2023-03-23T06:14:34;24.40;;;5.23;;
11004;SDS011;5555;59.622;16.556;2023-03-23T06:17:01;22.57;;;5.30;;
11004;SDS011;5555;59.622;16.556;2023-03-23T06:19:27;22.67;;;5.53;;
11004;SDS011;5555;59.622;16.556;2023-03-23T06:21:55;25.37;;;5.57;;
11004;SDS011;5555;59.622;16.556;2023-03-23T06:24:21;24.10;;;6.07;;
11004;SDS011;5555;59.622;16.556;2023-03-23T06:26:47;23.20;;;5.77;;
11004;SDS011;5555;59.622;16.556;2023-03-23T06:29:13;24.67;;;5.47;;
11004;SDS011;5555;59.622;16.556;2023-03-23T06:31:40;26.33;;;6.33;;
11004;SDS011;5555;59.622;16.556;2023-03-23T06:34:08;21.63;;;5.53;;
11004;SDS011;5555;59.622;16.556;2023-03-23T06:36:35;19.90;;;6.27;;
11004;SDS011;5555;59.622;16.556;2023-03-23T06:39:01;22.07;;;4.87;;
11004;SDS011;5555;59.622;16.556;2023-03-23T06:41:29;21.10;;;5.10;;
11004;SDS011;5555;59.622;16.556;2023-03-23T06:43:55;22.63;;;5.70;;
11004;SDS011;5555;59.622;16.556;2023-03-23T06:46:21;24.03;;;5.00;;
11004;SDS011;5555;59.622;16.556;2023-03-23T06:48:46;22.97;;;5.93;;
11004;SDS011;5555;59.622;16.556;2023-03-23T06:51:14;19.43;;;4.80;;
11004;SDS011;5555;59.622;16.556;2023-03-23T06:53:41;27.20;;;5.97;;
11004;SDS011;5555;59.622;16.556;2023-03-23T06:56:06;24.23;;;5.97;;
11004;SDS011;5555;59.622;16.556;2023-03-23T06:58:32;20.87;;;4.67;;
11004;SDS011;5555;59.622;16.556;2023-03-23T07:00:58;21.23;;;4.30;;
11004;SDS011;5555;59.622;16.556;2023-03-23T07:03:24;18.73;;;4.33;;
11004;SDS011;5555;59.622;16.556;2023-03-23T07:05:51;23.60;;;5.40;;
11004;SDS011;5555;59.622;16.556;2023-03-23T07:08:17;20.70;;;5.30;;
11004;SDS011;5555;59.622;16.556;2023-03-23T07:10:42;22.80;;;5.40;;
11004;SDS011;5555;59.622;16.556;2023-03-23T07:13:08;19.53;;;4.83;;
11004;SDS011;5555;59.622;16.556;2023-03-23T07:15:34;24.20;;;5.50;;
11004;SDS011;5555;59.622;16.556;2023-03-23T07:18:00;20.63;;;5.53;;
11004;SDS011;5555;59.622;16.556;2023-03-23T07:20:26;18.73;;;4.90;;
11004;SDS011;5555;59.622;16.556;2023-03-23T07:22:53;21.17;;;4.93;;
11004;SDS011;5555;59.622;16.556;2023-03-23T07:25:19;22.20;;;5.27;;
11004;SDS011;5555;59.622;16.556;2023-03-23T07:27:45;20.90;;;5.33;;
11004;SDS011;5555;59.622;16.556;2023-03-23T07:30:11;23.20;;;4.93;;
11004;SDS011;5555;59.622;16.556;2023-03-23T07:32:38;27.07;;;5.27;;
11004;SDS011;5555;59.622;16.556;2023-03-23T07:35:04;24.43;;;5.63;;
11004;SDS011;5555;59.622;16.556;2023-03-23T07:37:30;19.13;;;5.60;;
11004;SDS011;5555;59.622;16.556;2023-03-23T07:39:57;24.20;;;5.57;;
11004;SDS011;5555;59.622;16.556;2023-03-23T07:42:22;21.57;;;4.87;;
11004;SDS011;5555;59.622;16.556;2023-03-23T07:44:48;26.93;;;5.90;;
11004;SDS011;5555;59.622;16.556;2023-03-23T07:47:14;17.43;;;4.63;;
11004;SDS011;5555;59.622;16.556;2023-03-23T07:49:40;15.43;;;4.33;;
11004;SDS011;5555;59.622;16.556;2023-03-23T07:52:06;23.40;;;5.47;;
11004;SDS011;5555;59.622;16.556;2023-03-23T07:54:31;19.23;;;4.97;;
11004;SDS011;5555;59.622;16.556;2023-03-23T07:56:57;19.20;;;4.70;;
11004;SDS011;5555;59.622;16.556;2023-03-23T07:59:22;18.10;;;5.00;;
11004;SDS011;5555;59.622;16.556;2023-03-23T08:01:48;21.23;;;4.43;;
11004;SDS011;5555;59.622;16.556;2023-03-23T08:04:14;20.73;;;5.27;;
11004;SDS011;5555;59.622;16.556;2023-03-23T08:06:40;16.27;;;4.77;;
11004;SDS011;5555;59.622;16.556;2023-03-23T08:09:07;22.50;;;5.63;;
11004;SDS011;5555;59.622;16.556;2023-03-23T08:11:37;21.17;;;4.33;;
11004;SDS011;5555;59.622;16.556;2023-03-23T08:14:03;15.70;;;4.37;;
11004;SDS011;5555;59.622;16.556;2023-03-23T08:16:30;15.30;;;4.37;;
11004;SDS011;5555;59.622;16.556;2023-03-23T08:18:56;18.90;;;3.97;;
11004;SDS011;5555;59.622;16.556;2023-03-23T08:21:23;20.00;;;5.07;;
11004;SDS011;5555;59.622;16.556;2023-03-23T08:23:49;19.87;;;4.30;;
11004;SDS011;5555;59.622;16.556;2023-03-23T08:26:14;18.20;;;4.20;;
11004;SDS011;5555;59.622;16.556;2023-03-23T08:28:42;22.37;;;5.00;;
11004;SDS011;5555;59.622;16.556;2023-03-23T08:31:12;17.73;;;4.77;;
11004;SDS011;5555;59.622;16.556;2023-03-23T08:33:39;19.27;;;5.07;;
11004;SDS011;5555;59.622;16.556;2023-03-23T08:36:06;19.67;;;4.07;;
11004;SDS011;5555;59.622;16.556;2023-03-23T08:38:33;21.57;;;4.43;;
11004;SDS011;5555;59.622;16.556;2023-03-23T08:41:00;21.67;;;4.57;;
11004;SDS011;5555;59.622;16.556;2023-03-23T08:43:28;18.27;;;4.77;;
11004;SDS011;5555;59.622;16.556;2023-03-23T08:45:54;17.33;;;4.50;;
11004;SDS011;5555;59.622;16.556;2023-03-23T08:48:21;14.33;;;3.70;;
11004;SDS011;5555;59.622;16.556;2023-03-23T08:50:48;17.10;;;4.37;;
11004;SDS011;5555;59.622;16.556;2023-03-23T08:53:14;14.63;;;4.43;;
11004;SDS011;5555;59.622;16.556;2023-03-23T08:55:40;22.20;;;4.57;;
11004;SDS011;5555;59.622;16.556;2023-03-23T08:58:06;14.90;;;3.30;;
11004;SDS011;5555;59.622;16.556;2023-03-23T09:00:31;20.87;;;4.53;;
11004;SDS011;5555;59.622;16.556;2023-03-23T09:02:58;21.07;;;4.60;;
11004;SDS011;5555;59.622;16.556;2023-03-23T09:05:25;20.97;;;5.43;;
11004;SDS011;5555;59.622;16.556;2023-03-23T09:07:53;15.27;;;4.40;;
11004;SDS011;5555;59.622;16.556;2023-03-23T09:10:21;15.20;;;4.53;;
11004;SDS011;5555;59.622;16.556;2023-03-23T09:12:47;12.80;;;3.77;;
11004;SDS011;5555;59.622;16.556;2023-03-23T09:15:15;24.37;;;4.40;;
11004;SDS011;5555;59.622;16.556;2023-03-23T09:17:43;12.10;;;3.80;;
11004;SDS011;5555;59.622;16.556;2023-03-23T09:20:11;13.40;;;3.60;;
11004;SDS011;5555;59.622;16.556;2023-03-23T09:22:39;18.13;;;4.33;;
11004;SDS011;5555;59.622;16.556;2023-03-23T09:25:10;12.47;;;3.43;;
11004;SDS011;5555;59.622;16.556;2023-03-23T09:27:38;19.30;;;4.30;;
11004;SDS011;5555;59.622;16.556;2023-03-23T09:30:09;12.63;;;3.77;;
11004;SDS011;5555;59.622;16.556;2023-03-23T09:32:37;14.97;;;4.43;;
11004;SDS011;5555;59.622;16.556;2023-03-23T09:35:04;18.13;;;3.70;;
11004;SDS011;5555;59.622;16.556;2023-03-23T09:37:37;14.60;;;3.80;;
11004;SDS011;5555;59.622;16.556;2023-03-23T09:40:04;13.57;;;3.87;;
11004;SDS011;5555;59.622;16.556;2023-03-23T09:45:48;15.03;;;3.67;;
11004;SDS011;5555;59.622;16.556;2023-03-23T09:53:53;15.73;;;3.50;;
11004;SDS011;5555;59.622;16.556;2023-03-23T09:56:21;12.63;;;3.40;;
11004;SDS011;5555;59.622;16.556;2023-03-23T09:58:53;20.17;;;3.93;;
11004;SDS011;5555;59.622;16.556;2023-03-23T10:01:48;16.80;;;3.43;;
11004;SDS011;5555;59.622;16.556;2023-03-23T10:06:59;16.63;;;3.53;;
11004;SDS011;5555;59.622;16.556;2023-03-23T10:09:35;15.80;;;3.33;;
11004;SDS011;5555;59.622;16.556;2023-03-23T10:18:07;13.97;;;3.73;;
11004;SDS011;5555;59.622;16.556;2023-03-23T10:20:56;12.07;;;3.23;;
11004;SDS011;5555;59.622;16.556;2023-03-23T10:23:35;12.70;;;3.43;;
11004;SDS011;5555;59.622;16.556;2023-03-23T10:28:54;13.43;;;3.27;;
11004;SDS011;5555;59.622;16.556;2023-03-23T10:32:01;10.60;;;3.13;;
11004;SDS011;5555;59.622;16.556;2023-03-23T10:37:10;12.03;;;3.67;;
11004;SDS011;5555;59.622;16.556;2023-03-23T10:40:05;12.40;;;3.47;;
11004;SDS011;5555;59.622;16.556;2023-03-23T10:42:39;15.40;;;3.63;;
11004;SDS011;5555;59.622;16.556;2023-03-23T10:48:11;13.70;;;3.20;;
11004;SDS011;5555;59.622;16.556;2023-03-23T10:50:38;11.77;;;3.27;;
11004;SDS011;5555;59.622;16.556;2023-03-23T10:53:16;12.97;;;3.40;;
11004;SDS011;5555;59.622;16.556;2023-03-23T10:55:45;10.40;;;3.20;;
11004;SDS011;5555;59.622;16.556;2023-03-23T10:58:21;11.97;;;3.00;;
11004;SDS011;5555;59.622;16.556;2023-03-23T11:00:49;12.17;;;3.33;;
11004;SDS011;5555;59.622;16.556;2023-03-23T11:05:43;14.07;;;2.77;;
11004;SDS011;5555;59.622;16.556;2023-03-23T11:08:20;9.60;;;2.60;;
11004;SDS011;5555;59.622;16.556;2023-03-23T11:10:51;10.80;;;2.47;;
11004;SDS011;5555;59.622;16.556;2023-03-23T11:13:22;12.23;;;2.63;;
11004;SDS011;5555;59.622;16.556;2023-03-23T11:15:54;8.57;;;2.17;;
11004;SDS011;5555;59.622;16.556;2023-03-23T11:18:27;6.90;;;2.33;;
11004;SDS011;5555;59.622;16.556;2023-03-23T11:21:01;10.30;;;2.63;;
11004;SDS011;5555;59.622;16.556;2023-03-23T11:23:39;10.70;;;2.60;;
11004;SDS011;5555;59.622;16.556;2023-03-23T11:31:39;19.47;;;3.27;;
11004;SDS011;5555;59.622;16.556;2023-03-23T11:34:13;11.17;;;2.43;;
11004;SDS011;5555;59.622;16.556;2023-03-23T11:36:47;16.50;;;3.30;;
11004;SDS011;5555;59.622;16.556;2023-03-23T11:41:49;10.73;;;2.90;;
11004;SDS011;5555;59.622;16.556;2023-03-23T11:44:15;11.70;;;2.80;;
11004;SDS011;5555;59.622;16.556;2023-03-23T11:46:55;9.50;;;2.30;;
11004;SDS011;5555;59.622;16.556;2023-03-23T11:49:45;10.07;;;2.50;;
11004;SDS011;5555;59.622;16.556;2023-03-23T11:58:17;8.47;;;2.27;;
11004;SDS011;5555;59.622;16.556;2023-03-23T12:00:51;9.83;;;2.50;;
11004;SDS011;5555;59.622;16.556;2023-03-23T12:03:24;8.37;;;3.27;;
11004;SDS011;5555;59.622;16.556;2023-03-23T12:06:13;10.20;;;2.67;;
11004;SDS011;5555;59.622;16.556;2023-03-23T12:24:54;10.43;;;2.70;;
11004;SDS011;5555;59.622;16.556;2023-03-23T12:27:49;8.70;;;1.93;;
11004;SDS011;5555;59.622;16.556;2023-03-23T12:36:03;10.20;;;3.10;;
11004;SDS011;5555;59.622;16.556;2023-03-23T12:38:44;7.57;;;2.10;;
11004;SDS011;5555;59.622;16.556;2023-03-23T12:41:16;10.53;;;3.30;;
11004;SDS011;5555;59.622;16.556;2023-03-23T12:44:05;7.60;;;2.83;;
11004;SDS011;5555;59.622;16.556;2023-03-23T12:49:31;9.87;;;2.60;;
11004;SDS011;5555;59.622;16.556;2023-03-23T13:00:14;6.70;;;2.47;;
11004;SDS011;5555;59.622;16.556;2023-03-23T13:07:52;10.03;;;2.77;;
11004;SDS011;5555;59.622;16.556;2023-03-23T13:10:27;9.37;;;3.00;;
11004;SDS011;5555;59.622;16.556;2023-03-23T13:12:57;7.90;;;2.47;;
11004;SDS011;5555;59.622;16.556;2023-03-23T13:23:27;8.67;;;2.60;;
11004;SDS011;5555;59.622;16.556;2023-03-23T13:29:18;8.10;;;2.07;;
11004;SDS011;5555;59.622;16.556;2023-03-23T13:31:22;10.67;;;2.57;;
11004;SDS011;5555;59.622;16.556;2023-03-23T13:37:01;8.50;;;2.13;;
11004;SDS011;5555;59.622;16.556;2023-03-23T13:39:37;10.20;;;2.40;;
11004;SDS011;5555;59.622;16.556;2023-03-23T13:50:05;7.00;;;2.35;;
11004;SDS011;5555;59.622;16.556;2023-03-23T13:52:57;9.77;;;2.50;;
11004;SDS011;5555;59.622;16.556;2023-03-23T14:03:05;6.43;;;2.17;;
11004;SDS011;5555;59.622;16.556;2023-03-23T14:06:22;9.02;;;2.40;;
11004;SDS011;5555;59.622;16.556;2023-03-23T14:11:10;13.70;;;2.77;;
11004;SDS011;5555;59.622;16.556;2023-03-23T14:14:07;6.23;;;2.03;;
11004;SDS011;5555;59.622;16.556;2023-03-23T14:19:15;7.57;;;2.50;;
11004;SDS011;5555;59.622;16.556;2023-03-23T14:21:51;10.83;;;2.33;;
11004;SDS011;5555;59.622;16.556;2023-03-23T14:24:21;19.50;;;3.00;;
11004;SDS011;5555;59.622;16.556;2023-03-23T14:26:52;10.13;;;2.90;;
11004;SDS011;5555;59.622;16.556;2023-03-23T14:29:27;9.30;;;2.47;;
11004;SDS011;5555;59.622;16.556;2023-03-23T14:31:56;19.27;;;3.15;;
11004;SDS011;5555;59.622;16.556;2023-03-23T14:34:28;10.52;;;2.50;;
11004;SDS011;5555;59.622;16.556;2023-03-23T14:36:57;9.63;;;2.47;;
11004;SDS011;5555;59.622;16.556;2023-03-23T14:39:25;17.42;;;3.03;;
11004;SDS011;5555;59.622;16.556;2023-03-23T14:41:56;14.73;;;3.15;;
11004;SDS011;5555;59.622;16.556;2023-03-23T14:44:32;9.93;;;2.90;;
11004;SDS011;5555;59.622;16.556;2023-03-23T14:47:01;13.30;;;2.35;;
11004;SDS011;5555;59.622;16.556;2023-03-23T14:49:32;12.98;;;2.70;;
11004;SDS011;5555;59.622;16.556;2023-03-23T14:52:09;10.27;;;2.80;;
11004;SDS011;5555;59.622;16.556;2023-03-23T14:54:43;19.27;;;3.17;;
11004;SDS011;5555;59.622;16.556;2023-03-23T14:57:16;9.63;;;2.63;;
11004;SDS011;5555;59.622;16.556;2023-03-23T14:59:48;9.63;;;2.20;;
11004;SDS011;5555;59.622;16.556;2023-03-23T15:02:16;9.32;;;2.00;;
11004;SDS011;5555;59.622;16.556;2023-03-23T15:04:47;14.35;;;2.88;;
11004;SDS011;5555;59.622;16.556;2023-03-23T15:07:15;14.88;;;2.65;;
11004;SDS011;5555;59.622;16.556;2023-03-23T15:09:43;11.90;;;2.47;;
11004;SDS011;5555;59.622;16.556;2023-03-23T15:12:24;13.05;;;3.15;;
11004;SDS011;5555;59.622;16.556;2023-03-23T15:14:53;15.43;;;2.78;;
11004;SDS011;5555;59.622;16.556;2023-03-23T15:17:26;17.38;;;3.13;;
11004;SDS011;5555;59.622;16.556;2023-03-23T15:19:54;16.13;;;2.47;;
11004;SDS011;5555;59.622;16.556;2023-03-23T15:22:44;13.73;;;2.00;;
11004;SDS011;5555;59.622;16.556;2023-03-23T15:25:12;13.80;;;3.13;;
11004;SDS011;5555;59.622;16.556;2023-03-23T15:27:52;15.67;;;3.20;;
11004;SDS011;5555;59.622;16.556;2023-03-23T15:32:52;11.27;;;2.73;;
11004;SDS011;5555;59.622;16.556;2023-03-23T15:35:33;12.53;;;2.70;;
11004;SDS011;5555;59.622;16.556;2023-03-23T15:38:01;25.00;;;2.80;;
11004;SDS011;5555;59.622;16.556;2023-03-23T15:40:32;19.67;;;2.93;;
11004;SDS011;5555;59.622;16.556;2023-03-23T15:43:19;24.40;;;3.10;;
11004;SDS011;5555;59.622;16.556;2023-03-23T15:48:45;13.07;;;3.27;;
11004;SDS011;5555;59.622;16.556;2023-03-23T15:51:14;21.47;;;3.53;;
11004;SDS011;5555;59.622;16.556;2023-03-23T15:53:41;19.30;;;3.87;;
11004;SDS011;5555;59.622;16.556;2023-03-23T15:56:08;20.30;;;3.50;;
11004;SDS011;5555;59.622;16.556;2023-03-23T15:58:35;26.23;;;3.73;;
11004;SDS011;5555;59.622;16.556;2023-03-23T16:01:04;23.43;;;4.63;;
11004;SDS011;5555;59.622;16.556;2023-03-23T16:03:51;25.67;;;4.20;;
11004;SDS011;5555;59.622;16.556;2023-03-23T16:06:18;21.50;;;3.67;;
11004;SDS011;5555;59.622;16.556;2023-03-23T16:08:45;30.27;;;4.20;;
11004;SDS011;5555;59.622;16.556;2023-03-23T16:11:11;21.17;;;3.37;;
11004;SDS011;5555;59.622;16.556;2023-03-23T16:13:39;35.17;;;3.90;;
11004;SDS011;5555;59.622;16.556;2023-03-23T16:16:05;30.93;;;4.97;;
11004;SDS011;5555;59.622;16.556;2023-03-23T16:18:36;53.97;;;5.97;;
11004;SDS011;5555;59.622;16.556;2023-03-23T16:21:02;41.07;;;5.60;;
11004;SDS011;5555;59.622;16.556;2023-03-23T16:23:28;54.80;;;7.50;;
11004;SDS011;5555;59.622;16.556;2023-03-23T16:25:53;42.50;;;5.97;;
11004;SDS011;5555;59.622;16.556;2023-03-23T16:28:19;42.73;;;6.27;;
11004;SDS011;5555;59.622;16.556;2023-03-23T16:30:47;38.30;;;5.00;;
11004;SDS011;5555;59.622;16.556;2023-03-23T16:33:12;30.87;;;4.80;;
11004;SDS011;5555;59.622;16.556;2023-03-23T16:35:38;32.80;;;5.00;;
11004;SDS011;5555;59.622;16.556;2023-03-23T16:38:04;33.23;;;5.93;;
11004;SDS011;5555;59.622;16.556;2023-03-23T16:40:30;30.33;;;3.93;;
11004;SDS011;5555;59.622;16.556;2023-03-23T16:42:57;28.60;;;4.90;;
11004;SDS011;5555;59.622;16.556;2023-03-23T16:45:23;35.60;;;4.97;;
11004;SDS011;5555;59.622;16.556;2023-03-23T16:47:50;30.03;;;5.00;;
11004;SDS011;5555;59.622;16.556;2023-03-23T16:50:18;29.47;;;5.30;;
11004;SDS011;5555;59.622;16.556;2023-03-23T16:52:45;30.70;;;4.67;;
11004;SDS011;5555;59.622;16.556;2023-03-23T16:55:15;33.27;;;4.97;;
11004;SDS011;5555;59.622;16.556;2023-03-23T16:57:41;37.67;;;5.97;;
11004;SDS011;5555;59.622;16.556;2023-03-23T17:00:08;30.57;;;4.57;;
11004;SDS011;5555;59.622;16.556;2023-03-23T17:02:36;34.83;;;5.50;;
11004;SDS011;5555;59.622;16.556;2023-03-23T17:05:04;37.93;;;5.37;;
11004;SDS011;5555;59.622;16.556;2023-03-23T17:07:30;41.67;;;6.23;;